Time;durP1;ratioP1;P1;durP2;ratioP2;P2;SDS_P1;SDS_P2;PMS_P1;PMS_P2;Temp;Humidity;BMP_temperature;BMP_pressure;BME280_temperature;BME280_humidity;BME280_pressure;Samples;Min_cycle;Max_cycle;Signal;HPM_P1;HPM_P2
2021/12/02 00:00:09;;;;;;;331.97;98.00;;;;;;;4.35;73.25;99300.81;345138;28;1355;-73
2021/12/02 00:00:20;;;;;;;329.00;97.13;;;;;;;4.38;73.14;99307.69;345415;28;1476;-73
2021/12/02 00:00:30;;;;;;;327.87;97.23;;;;;;;4.37;73.28;99305.13;343799;28;1354;-73
2021/12/02 00:00:41;;;;;;;328.53;96.27;;;;;;;4.39;73.02;99300.75;343701;28;1192;-73
2021/12/02 00:00:51;;;;;;;329.97;96.03;;;;;;;4.38;73.42;99296.47;345161;28;1208;-73
2021/12/02 00:01:01;;;;;;;332.07;95.43;;;;;;;4.39;72.95;99306.81;345045;28;1365;-73
2021/12/02 00:01:12;;;;;;;333.83;96.63;;;;;;;4.37;73.38;99302.53;345205;28;959;-73
2021/12/02 00:01:22;;;;;;;331.57;96.53;;;;;;;4.33;73.08;99300.00;345246;28;1295;-73
2021/12/02 00:01:33;;;;;;;330.37;96.20;;;;;;;4.30;73.19;99292.31;342417;28;1119;-73
2021/12/02 00:01:43;;;;;;;331.03;97.60;;;;;;;4.28;73.55;99295.84;342342;28;1325;-73
2021/12/02 00:01:53;;;;;;;333.17;98.57;;;;;;;4.28;73.45;99298.41;345208;28;962;-73
2021/12/02 00:02:06;;;;;;;333.90;100.47;;;;;;;4.29;73.63;99295.81;345088;28;1279;-73
2021/12/02 00:02:18;;;;;;;334.52;98.60;;;;;;;4.30;73.76;99307.03;343839;28;971;-73
2021/12/02 00:02:28;;;;;;;332.05;98.10;;;;;;;4.28;73.38;99294.09;342532;28;961;-73
2021/12/02 00:02:39;;;;;;;331.07;96.57;;;;;;;4.30;73.67;99302.69;343836;28;889;-73
2021/12/02 00:02:49;;;;;;;331.93;97.33;;;;;;;4.28;73.53;99296.69;343876;28;2066;-72
2021/12/02 00:03:03;;;;;;;335.77;97.37;;;;;;;4.26;73.91;99298.44;345302;28;801;-72
2021/12/02 00:03:13;;;;;;;335.73;98.13;;;;;;;4.24;73.69;99300.22;346076;28;1294;-72
2021/12/02 00:03:24;;;;;;;335.58;97.63;;;;;;;4.23;73.65;99300.25;346550;28;1221;-72
2021/12/02 00:03:35;;;;;;;337.33;97.47;;;;;;;4.23;73.41;99300.25;345228;28;1038;-73
2021/12/02 00:03:47;;;;;;;335.48;96.82;;;;;;;4.22;73.99;99296.81;345182;28;1286;-72
2021/12/02 00:03:58;;;;;;;333.25;97.00;;;;;;;4.20;73.85;99302.91;345305;28;987;-73
2021/12/02 00:04:09;;;;;;;334.00;98.80;;;;;;;4.17;73.69;99296.03;342411;28;1359;-72
2021/12/02 00:04:19;;;;;;;337.60;100.13;;;;;;;4.13;73.76;99302.16;345279;28;1393;-72
2021/12/02 00:04:33;;;;;;;336.25;99.88;;;;;;;4.16;73.89;99299.53;345136;28;1302;-73
2021/12/02 00:04:44;;;;;;;332.15;97.60;;;;;;;4.17;74.04;99300.38;344663;28;1084;-72
2021/12/02 00:04:54;;;;;;;332.90;98.18;;;;;;;4.18;73.94;99296.91;343762;28;988;-74
2021/12/02 00:05:05;;;;;;;332.27;98.60;;;;;;;4.17;74.25;99306.41;345116;28;1298;-73
2021/12/02 00:05:16;;;;;;;334.92;99.97;;;;;;;4.15;74.15;99302.13;345218;28;923;-72
2021/12/02 00:05:26;;;;;;;333.58;98.90;;;;;;;4.16;73.89;99304.69;343750;28;1541;-72
2021/12/02 00:05:37;;;;;;;335.93;99.37;;;;;;;4.17;74.25;99296.03;343845;28;874;-72
2021/12/02 00:05:47;;;;;;;335.10;99.35;;;;;;;4.15;73.99;99303.00;343848;28;1327;-72
2021/12/02 00:05:58;;;;;;;333.90;98.77;;;;;;;4.15;74.07;99296.97;345202;28;845;-72
2021/12/02 00:06:10;;;;;;;333.25;99.40;;;;;;;4.15;73.99;99299.56;346492;28;992;-72
2021/12/02 00:06:20;;;;;;;333.15;98.97;;;;;;;4.13;73.83;99294.41;345270;28;865;-72
2021/12/02 00:06:31;;;;;;;333.23;98.57;;;;;;;4.12;73.98;99303.06;343799;28;1332;-72
2021/12/02 00:06:41;;;;;;;332.63;97.23;;;;;;;4.12;74.23;99297.88;343652;28;1175;-72
2021/12/02 00:06:51;;;;;;;332.17;96.18;;;;;;;4.11;74.37;99301.34;345111;28;1450;-72
2021/12/02 00:07:04;;;;;;;331.30;94.80;;;;;;;4.09;74.28;99303.13;344927;28;2541;-72
2021/12/02 00:07:14;;;;;;;332.50;95.30;;;;;;;4.09;74.58;99295.34;343808;28;906;-72
2021/12/02 00:07:25;;;;;;;333.10;97.60;;;;;;;4.09;74.16;99303.13;342347;28;877;-72
2021/12/02 00:07:35;;;;;;;334.40;97.80;;;;;;;4.08;74.47;99293.63;342469;28;1230;-72
2021/12/02 00:07:45;;;;;;;333.90;98.60;;;;;;;4.09;74.22;99297.94;343952;28;2026;-72
2021/12/02 00:07:56;;;;;;;334.23;97.87;;;;;;;4.07;74.24;99294.53;344308;28;1176;-72
2021/12/02 00:08:06;;;;;;;333.13;98.85;;;;;;;4.07;73.98;99299.69;346561;28;1483;-72
2021/12/02 00:08:17;;;;;;;331.60;98.33;;;;;;;4.07;74.56;99298.84;345469;28;1317;-72
2021/12/02 00:08:27;;;;;;;331.27;98.22;;;;;;;4.07;74.25;99299.69;345431;28;1262;-72
2021/12/02 00:08:38;;;;;;;332.70;97.00;;;;;;;4.08;74.57;99297.97;346736;28;1663;-72
2021/12/02 00:08:49;;;;;;;336.40;96.88;;;;;;;4.05;74.52;99301.47;344027;28;1295;-72
2021/12/02 00:08:59;;;;;;;337.50;97.03;;;;;;;4.08;74.42;99298.81;342705;28;1463;-72
2021/12/02 00:09:09;;;;;;;339.10;99.13;;;;;;;4.07;74.38;99294.53;344151;28;1402;-72
2021/12/02 00:09:20;;;;;;;341.27;100.10;;;;;;;4.10;74.50;99301.38;344159;28;850;-72
2021/12/02 00:09:31;;;;;;;338.70;99.80;;;;;;;4.07;74.38;99299.69;344050;28;1361;-72
2021/12/02 00:09:42;;;;;;;336.40;99.13;;;;;;;4.09;74.50;99300.53;344144;28;1089;-72
2021/12/02 00:09:54;;;;;;;331.47;98.57;;;;;;;4.11;74.77;99296.16;346721;28;1309;-72
2021/12/02 00:10:05;;;;;;;331.17;98.05;;;;;;;4.10;74.29;99294.47;346808;28;928;-72
2021/12/02 00:10:15;;;;;;;332.83;97.65;;;;;;;4.13;74.37;99298.72;345368;28;1282;-72
2021/12/02 00:10:31;;;;;;;334.43;96.73;;;;;;;4.12;74.46;99299.59;346824;28;972;-72
2021/12/02 00:10:41;;;;;;;333.98;96.93;;;;;;;4.10;74.38;99299.63;344122;28;936;-72
2021/12/02 00:10:52;;;;;;;333.13;96.47;;;;;;;4.12;74.76;99303.06;344187;28;888;-72
2021/12/02 00:11:02;;;;;;;333.38;97.45;;;;;;;4.13;74.44;99301.31;345433;28;983;-72
2021/12/02 00:11:13;;;;;;;332.67;97.60;;;;;;;4.13;74.86;99298.72;345591;28;662;-72
2021/12/02 00:11:23;;;;;;;332.07;97.50;;;;;;;4.11;74.46;99301.34;344100;28;1250;-72
2021/12/02 00:11:34;;;;;;;333.13;97.85;;;;;;;4.12;74.83;99297.03;345357;28;1245;-72
2021/12/02 00:11:44;;;;;;;333.10;98.00;;;;;;;4.11;74.66;99301.34;345562;28;813;-72
2021/12/02 00:11:54;;;;;;;332.07;96.70;;;;;;;4.11;74.89;99306.53;345441;28;1200;-74
2021/12/02 00:12:05;;;;;;;329.63;96.18;;;;;;;4.10;74.45;99294.47;345266;28;1226;-74
2021/12/02 00:12:16;;;;;;;331.70;96.53;;;;;;;4.11;74.89;99303.94;345516;28;1330;-73
2021/12/02 00:12:26;;;;;;;336.20;99.50;;;;;;;4.06;75.00;99297.13;344054;28;1361;-73
2021/12/02 00:12:37;;;;;;;334.20;97.60;;;;;;;4.08;74.76;99301.41;344097;28;834;-73
2021/12/02 00:12:49;;;;;;;333.00;97.22;;;;;;;4.10;74.72;99302.22;341849;28;987;-73
2021/12/02 00:13:00;;;;;;;332.60;95.97;;;;;;;4.10;74.68;99304.81;345245;28;1481;-73
2021/12/02 00:13:11;;;;;;;333.02;95.75;;;;;;;4.08;74.91;99301.41;345430;28;1006;-73
2021/12/02 00:13:25;;;;;;;332.95;96.55;;;;;;;4.07;74.71;99298.84;346325;28;1345;-73
2021/12/02 00:13:53;;;;;;;331.50;98.35;;;;;;;4.07;74.51;99302.28;345559;28;1742;-73
2021/12/02 00:14:09;;;;;;;335.98;97.10;;;;;;;4.03;74.79;99302.38;342793;28;873;-73
2021/12/02 00:14:25;;;;;;;332.40;95.68;;;;;;;4.00;74.41;99298.09;341581;29;964;-73
2021/12/02 00:14:44;;;;;;;329.95;95.38;;;;;;;3.97;74.38;99303.34;344156;28;1035;-73
2021/12/02 00:14:55;;;;;;;328.95;96.40;;;;;;;3.99;74.87;99306.75;343922;28;1470;-73
2021/12/02 00:15:09;;;;;;;328.67;95.93;;;;;;;3.99;74.68;99306.75;344151;28;1025;-73
2021/12/02 00:15:24;;;;;;;329.85;96.97;;;;;;;4.00;74.65;99304.13;343502;28;1822;-73
2021/12/02 00:16:49;;;;;;;332.92;96.85;;;;;;;4.14;74.88;99311.63;346652;28;938;-73
2021/12/02 00:17:17;;;;;;;334.47;96.10;;;;;;;4.12;74.51;99313.41;344048;28;914;-73
2021/12/02 00:17:29;;;;;;;336.02;98.53;;;;;;;4.09;74.62;99310.88;346771;28;845;-73
2021/12/02 00:17:41;;;;;;;333.10;98.00;;;;;;;4.10;74.63;99310.00;344586;28;1667;-73
2021/12/02 00:18:08;;;;;;;335.25;98.18;;;;;;;4.06;74.26;99303.16;345283;28;2002;-73
2021/12/02 00:21:09;;;;;;;330.85;95.25;;;;;;;3.98;74.95;99310.22;344194;28;777;-73
2021/12/02 00:21:25;;;;;;;332.48;98.30;;;;;;;4.01;75.25;99315.34;345497;28;847;-73
2021/12/02 00:21:36;;;;;;;335.60;99.35;;;;;;;4.01;74.94;99316.19;346805;28;1278;-73
2021/12/02 00:21:51;;;;;;;334.98;97.50;;;;;;;4.01;75.04;99323.13;346808;28;944;-73
2021/12/02 00:22:01;;;;;;;332.55;96.25;;;;;;;3.99;75.29;99314.53;344785;28;1571;-73
2021/12/02 00:22:12;;;;;;;330.63;98.00;;;;;;;3.99;74.98;99315.38;342798;28;1243;-73
2021/12/02 00:22:25;;;;;;;329.40;97.93;;;;;;;3.99;75.25;99314.53;343955;28;1317;-73
2021/12/02 00:22:51;;;;;;;331.10;99.05;;;;;;;3.99;75.11;99314.53;346694;28;1354;-73
2021/12/02 00:23:18;;;;;;;332.90;97.65;;;;;;;4.00;75.12;99313.63;344078;28;1086;-73
2021/12/02 00:23:29;;;;;;;334.17;98.53;;;;;;;4.00;74.66;99314.50;344080;28;869;-73
2021/12/02 00:23:55;;;;;;;332.40;98.65;;;;;;;3.99;74.91;99317.13;344611;28;1105;-73
2021/12/02 00:24:07;;;;;;;332.05;98.13;;;;;;;4.00;74.80;99311.06;345260;28;1245;-73
2021/12/02 00:24:19;;;;;;;331.25;97.20;;;;;;;3.99;75.03;99317.13;346907;28;906;-73
2021/12/02 00:24:39;;;;;;;331.23;95.95;;;;;;;3.97;74.57;99313.69;345431;28;1305;-73
2021/12/02 00:25:00;;;;;;;334.77;97.25;;;;;;;3.95;75.04;99315.47;342757;28;901;-73
2021/12/02 00:25:10;;;;;;;334.33;97.97;;;;;;;3.96;74.91;99317.16;344045;28;1378;-73
2021/12/02 00:25:20;;;;;;;330.83;97.35;;;;;;;3.94;74.87;99313.75;346084;28;1180;-73
2021/12/02 00:25:31;;;;;;;333.07;98.77;;;;;;;3.95;75.27;99312.88;344029;28;1282;-73
2021/12/02 00:25:41;;;;;;;333.63;97.90;;;;;;;3.93;75.20;99312.06;345519;28;884;-73
2021/12/02 00:25:51;;;;;;;335.60;98.57;;;;;;;3.93;74.63;99314.63;344161;28;859;-73
2021/12/02 00:26:13;;;;;;;333.47;97.13;;;;;;;3.95;75.26;99315.47;344023;28;948;-73
2021/12/02 00:26:23;;;;;;;333.88;97.28;;;;;;;3.96;74.94;99322.34;345412;28;1014;-73
2021/12/02 00:26:36;;;;;;;335.30;98.17;;;;;;;3.97;74.86;99327.50;342699;28;1475;-73
2021/12/02 00:26:47;;;;;;;332.30;96.72;;;;;;;3.97;74.62;99321.47;344030;28;1834;-73
2021/12/02 00:26:58;;;;;;;332.45;98.18;;;;;;;3.95;74.68;99318.91;348045;28;1403;-73
2021/12/02 00:27:09;;;;;;;332.20;98.73;;;;;;;3.96;74.81;99317.16;344143;28;1017;-73
2021/12/02 00:27:19;;;;;;;332.15;97.43;;;;;;;3.95;74.68;99321.50;345525;28;861;-73
2021/12/02 00:27:30;;;;;;;330.63;94.60;;;;;;;3.94;74.79;99319.78;346872;28;884;-73
2021/12/02 00:27:41;;;;;;;327.80;93.33;;;;;;;3.95;74.57;99325.81;346836;28;825;-73
2021/12/02 00:27:52;;;;;;;329.23;95.50;;;;;;;3.94;74.57;99321.53;342645;28;1634;-73
2021/12/02 00:28:02;;;;;;;330.98;95.97;;;;;;;3.93;74.92;99317.22;342872;28;936;-73
2021/12/02 00:28:13;;;;;;;336.13;97.38;;;;;;;3.93;74.47;99317.22;345403;28;1039;-73
2021/12/02 00:28:28;;;;;;;335.87;97.23;;;;;;;3.92;74.47;99323.28;346849;28;823;-72
2021/12/02 00:28:39;;;;;;;335.95;96.57;;;;;;;3.91;74.83;99326.75;346798;28;1090;-72
2021/12/02 00:28:54;;;;;;;336.93;95.73;;;;;;;3.88;74.67;99317.34;342796;28;1349;-72
2021/12/02 00:29:06;;;;;;;337.05;96.07;;;;;;;3.90;74.81;99331.06;344035;28;963;-72
2021/12/02 00:29:18;;;;;;;334.67;96.45;;;;;;;3.90;74.72;99327.66;344180;28;845;-72
2021/12/02 00:29:29;;;;;;;332.40;96.10;;;;;;;3.91;74.98;99319.00;344185;28;868;-72
2021/12/02 00:29:40;;;;;;;331.88;96.80;;;;;;;3.94;74.86;99324.09;344109;28;873;-72
2021/12/02 00:29:51;;;;;;;331.38;96.50;;;;;;;3.92;74.68;99331.91;343963;28;1273;-73
2021/12/02 00:30:02;;;;;;;336.20;97.65;;;;;;;3.93;74.48;99330.16;344146;28;852;-73
2021/12/02 00:30:12;;;;;;;335.63;96.35;;;;;;;3.94;74.78;99329.28;344096;28;993;-73
2021/12/02 00:30:23;;;;;;;335.35;96.13;;;;;;;3.93;74.86;99325.00;343083;28;1219;-73
2021/12/02 00:30:33;;;;;;;333.37;95.07;;;;;;;3.93;74.65;99333.59;344124;28;876;-73
2021/12/02 00:30:44;;;;;;;332.95;96.30;;;;;;;3.92;74.28;99324.13;344008;28;1195;-73
2021/12/02 00:30:58;;;;;;;331.47;95.93;;;;;;;3.93;74.60;99331.03;345412;28;1242;-73
2021/12/02 00:31:15;;;;;;;331.73;96.15;;;;;;;3.91;74.32;99329.34;344148;28;1385;-73
2021/12/02 00:31:29;;;;;;;331.70;96.20;;;;;;;3.91;73.86;99326.75;342906;28;1000;-73
2021/12/02 00:31:39;;;;;;;330.27;95.50;;;;;;;3.91;74.41;99329.34;342678;28;1323;-73
2021/12/02 00:31:51;;;;;;;332.33;96.27;;;;;;;3.91;74.20;99324.16;344194;28;1001;-73
2021/12/02 00:32:03;;;;;;;333.15;97.00;;;;;;;3.92;74.29;99331.06;345149;28;1685;-73
2021/12/02 00:32:14;;;;;;;335.85;98.13;;;;;;;3.93;74.37;99330.16;346819;28;955;-73
2021/12/02 00:32:26;;;;;;;334.50;98.97;;;;;;;3.91;74.41;99324.16;346870;28;947;-73
2021/12/02 00:32:36;;;;;;;336.17;100.35;;;;;;;3.92;74.34;99331.06;344019;28;844;-73
2021/12/02 00:32:46;;;;;;;334.33;100.37;;;;;;;3.93;73.97;99322.41;344365;28;1556;-73
2021/12/02 00:32:57;;;;;;;332.98;99.47;;;;;;;3.92;73.96;99325.88;344183;28;876;-73
2021/12/02 00:33:07;;;;;;;334.57;97.70;;;;;;;3.92;74.27;99331.91;345491;28;989;-73
2021/12/02 00:33:17;;;;;;;335.27;97.85;;;;;;;3.93;73.95;99323.25;345531;28;873;-73
2021/12/02 00:33:30;;;;;;;336.13;98.53;;;;;;;3.92;74.16;99318.97;345486;28;912;-72
2021/12/02 00:33:44;;;;;;;332.45;98.35;;;;;;;3.94;74.12;99318.94;342597;28;1440;-72
2021/12/02 00:33:56;;;;;;;332.33;98.75;;;;;;;3.94;74.58;99318.94;345155;28;1054;-72
2021/12/02 00:34:08;;;;;;;333.45;98.15;;;;;;;3.95;74.19;99326.66;344172;28;909;-72
2021/12/02 00:34:19;;;;;;;333.88;97.22;;;;;;;3.96;74.22;99317.16;345310;28;1295;-72
2021/12/02 00:34:29;;;;;;;333.17;96.40;;;;;;;3.95;74.63;99320.63;345414;28;1294;-72
2021/12/02 00:34:44;;;;;;;334.57;97.17;;;;;;;3.95;74.18;99320.63;345011;28;1065;-72
2021/12/02 00:34:55;;;;;;;336.02;98.25;;;;;;;3.94;74.09;99311.16;345306;28;1366;-72
2021/12/02 00:35:06;;;;;;;336.08;98.72;;;;;;;3.95;74.28;99320.63;345544;28;812;-72
2021/12/02 00:35:16;;;;;;;335.10;99.27;;;;;;;3.93;74.54;99319.81;344046;28;1422;-72
2021/12/02 00:35:27;;;;;;;337.13;99.82;;;;;;;3.93;74.28;99317.22;343691;28;1201;-72
2021/12/02 00:35:37;;;;;;;335.30;99.47;;;;;;;3.93;74.40;99319.81;345459;28;1336;-72
2021/12/02 00:35:48;;;;;;;333.73;98.82;;;;;;;3.91;74.56;99313.81;344013;28;1422;-72
2021/12/02 00:35:58;;;;;;;335.07;98.83;;;;;;;3.90;74.79;99327.66;341403;29;1229;-72
2021/12/02 00:36:08;;;;;;;335.35;97.25;;;;;;;3.94;74.12;99324.09;344036;28;1223;-72
2021/12/02 00:36:21;;;;;;;336.50;96.93;;;;;;;3.95;74.52;99325.81;342856;28;904;-72
2021/12/02 00:36:33;;;;;;;333.33;94.70;;;;;;;3.95;74.27;99320.63;342860;28;825;-72
2021/12/02 00:36:43;;;;;;;334.05;95.30;;;;;;;3.97;74.16;99324.06;342762;28;868;-72
2021/12/02 00:36:53;;;;;;;333.13;95.53;;;;;;;3.96;74.22;99322.34;344115;28;968;-72
2021/12/02 00:37:04;;;;;;;333.37;97.40;;;;;;;3.96;74.12;99315.44;344014;28;1707;-72
2021/12/02 00:37:14;;;;;;;332.40;98.97;;;;;;;3.97;74.71;99318.88;345303;28;1223;-72
2021/12/02 00:37:26;;;;;;;334.97;99.90;;;;;;;3.99;74.32;99324.88;343877;28;1351;-72
2021/12/02 00:37:37;;;;;;;333.60;98.65;;;;;;;3.95;74.52;99325.81;344007;28;1429;-72
2021/12/02 00:37:47;;;;;;;331.90;97.15;;;;;;;3.99;74.54;99327.47;345225;28;1496;-72
2021/12/02 00:37:58;;;;;;;332.00;96.38;;;;;;;3.98;74.17;99330.94;344826;28;1207;-72
2021/12/02 00:38:09;;;;;;;332.57;97.73;;;;;;;4.00;74.55;99324.00;345578;28;890;-72
2021/12/02 00:38:20;;;;;;;333.67;98.63;;;;;;;3.99;74.28;99323.16;345512;28;902;-72
2021/12/02 00:38:30;;;;;;;332.58;98.47;;;;;;;3.99;74.47;99322.28;342795;28;931;-72
2021/12/02 00:38:41;;;;;;;334.23;96.78;;;;;;;4.00;74.27;99326.59;341628;28;1530;-72
2021/12/02 00:38:52;;;;;;;335.73;97.25;;;;;;;4.00;74.44;99329.19;343561;28;1102;-72
2021/12/02 00:39:14;;;;;;;341.02;97.65;;;;;;;4.01;74.20;99330.88;344116;28;971;-72
2021/12/02 00:39:24;;;;;;;332.50;96.43;;;;;;;4.01;74.00;99330.88;342738;28;926;-72
2021/12/02 00:39:35;;;;;;;327.57;94.77;;;;;;;4.01;74.38;99336.06;344109;28;859;-72
2021/12/02 00:39:45;;;;;;;331.92;96.85;;;;;;;3.98;74.22;99328.34;344167;28;912;-72
2021/12/02 00:39:56;;;;;;;335.63;98.07;;;;;;;3.97;74.41;99334.41;344132;28;900;-72
2021/12/02 00:40:07;;;;;;;338.33;98.95;;;;;;;3.97;73.91;99337.00;342830;28;825;-72
2021/12/02 00:40:17;;;;;;;335.90;98.07;;;;;;;3.93;74.12;99323.25;343993;28;1331;-72
2021/12/02 00:40:27;;;;;;;334.93;97.70;;;;;;;3.94;74.25;99339.63;342651;28;1362;-72
2021/12/02 00:40:38;;;;;;;338.05;99.03;;;;;;;3.94;74.83;99342.22;345310;28;1652;-72
2021/12/02 00:40:49;;;;;;;338.30;99.33;;;;;;;3.94;74.55;99339.63;345414;28;1357;-72
2021/12/02 00:40:59;;;;;;;336.70;98.82;;;;;;;3.90;74.17;99332.84;343904;28;1361;-72
2021/12/02 00:41:13;;;;;;;333.73;98.17;;;;;;;3.90;74.63;99338.03;344031;28;1355;-72
2021/12/02 00:41:26;;;;;;;333.65;96.95;;;;;;;3.91;74.18;99334.53;342675;28;1323;-72
2021/12/02 00:41:37;;;;;;;333.52;96.45;;;;;;;3.89;74.38;99336.31;341341;29;1460;-72
2021/12/02 00:41:47;;;;;;;333.23;96.43;;;;;;;3.91;74.33;99342.28;344126;28;1282;-72
2021/12/02 00:41:58;;;;;;;334.23;95.95;;;;;;;3.90;74.71;99332.84;345208;28;1529;-72
2021/12/02 00:42:09;;;;;;;333.80;95.45;;;;;;;3.90;74.39;99338.03;345290;28;1100;-74
2021/12/02 00:42:19;;;;;;;334.27;95.77;;;;;;;3.92;74.72;99331.06;345374;28;1399;-73
2021/12/02 00:42:30;;;;;;;332.23;96.10;;;;;;;3.91;74.41;99334.53;342593;28;1739;-73
2021/12/02 00:42:40;;;;;;;333.08;96.47;;;;;;;3.91;74.14;99334.53;344005;28;995;-73
2021/12/02 00:42:52;;;;;;;333.50;97.73;;;;;;;3.88;74.39;99330.28;345223;28;1993;-73
2021/12/02 00:43:02;;;;;;;333.30;96.30;;;;;;;3.89;74.39;99328.56;344044;28;1063;-73
2021/12/02 00:43:13;;;;;;;331.67;96.67;;;;;;;3.90;74.68;99332.84;345397;28;1171;-73
2021/12/02 00:43:23;;;;;;;335.05;96.63;;;;;;;3.89;74.66;99325.97;345550;28;907;-73
2021/12/02 00:43:34;;;;;;;339.48;98.72;;;;;;;3.89;74.35;99325.97;342756;28;967;-73
2021/12/02 00:43:44;;;;;;;343.53;99.33;;;;;;;3.88;74.38;99319.06;342725;28;910;-73
2021/12/02 00:43:56;;;;;;;341.10;99.38;;;;;;;3.83;74.26;99326.06;345483;28;903;-73
2021/12/02 00:44:07;;;;;;;338.50;100.68;;;;;;;3.85;75.02;99326.91;345429;28;952;-73
2021/12/02 00:44:18;;;;;;;339.07;99.80;;;;;;;3.87;74.69;99318.22;342840;28;1197;-73
2021/12/02 00:44:29;;;;;;;338.85;99.72;;;;;;;3.88;74.50;99313.91;342695;28;1590;-73
2021/12/02 00:44:39;;;;;;;339.73;98.80;;;;;;;3.84;74.37;99320.00;343877;28;1279;-73
2021/12/02 00:44:49;;;;;;;336.42;99.03;;;;;;;3.84;74.86;99318.28;342591;28;1070;-73
2021/12/02 00:45:00;;;;;;;336.10;98.57;;;;;;;3.84;74.45;99322.59;343886;28;850;-73
2021/12/02 00:45:11;;;;;;;336.27;98.80;;;;;;;3.82;74.58;99316.59;344013;28;953;-73
2021/12/02 00:45:21;;;;;;;339.77;98.63;;;;;;;3.80;74.77;99319.22;345387;28;2095;-73
2021/12/02 00:45:32;;;;;;;335.27;96.37;;;;;;;3.81;74.97;99317.47;345300;28;1734;-73
2021/12/02 00:45:42;;;;;;;334.13;95.88;;;;;;;3.80;74.92;99316.63;343939;28;1210;-73
2021/12/02 00:45:53;;;;;;;332.53;95.47;;;;;;;3.80;74.52;99310.59;345465;28;883;-73
2021/12/02 00:46:08;;;;;;;335.90;97.50;;;;;;;3.79;74.29;99317.50;346806;28;1222;-73
2021/12/02 00:46:20;;;;;;;336.60;97.45;;;;;;;3.78;74.78;99322.72;344039;28;1692;-73
2021/12/02 00:46:34;;;;;;;337.15;97.68;;;;;;;3.75;74.43;99312.41;345290;28;1295;-73
2021/12/02 00:46:45;;;;;;;335.50;97.38;;;;;;;3.75;74.42;99313.25;345470;28;872;-73
2021/12/02 00:46:55;;;;;;;334.93;97.87;;;;;;;3.73;74.67;99314.19;345389;28;1199;-73
2021/12/02 00:47:07;;;;;;;332.13;97.05;;;;;;;3.70;75.26;99322.00;344052;28;1534;-73
2021/12/02 00:47:17;;;;;;;334.66;98.34;;;;;;;3.68;75.00;99316.84;343130;28;954;-73
2021/12/02 00:47:28;;;;;;;333.97;98.00;;;;;;;3.68;75.47;99314.25;345292;28;1325;-73
2021/12/02 00:47:38;;;;;;;336.70;99.60;;;;;;;3.66;75.24;99310.84;344025;28;1235;-73
2021/12/02 00:47:49;;;;;;;334.93;98.63;;;;;;;3.66;75.18;99316.88;345134;28;2687;-73
2021/12/02 00:48:00;;;;;;;336.35;98.10;;;;;;;3.65;75.51;99312.56;344115;28;948;-73
2021/12/02 00:48:11;;;;;;;336.50;98.78;;;;;;;3.69;75.36;99318.53;344106;28;1008;-73
2021/12/02 00:48:21;;;;;;;338.85;100.00;;;;;;;3.68;75.00;99317.69;344095;28;1094;-73
2021/12/02 00:48:32;;;;;;;343.13;101.97;;;;;;;3.67;75.45;99320.31;345437;28;1419;-73
2021/12/02 00:48:42;;;;;;;343.80;101.50;;;;;;;3.68;75.21;99322.88;344058;28;822;-73
2021/12/02 00:48:53;;;;;;;341.00;100.27;;;;;;;3.70;75.76;99319.41;344014;28;862;-73
2021/12/02 00:49:06;;;;;;;338.88;99.50;;;;;;;3.70;75.56;99316.81;345367;28;1401;-73
2021/12/02 00:49:17;;;;;;;343.77;100.20;;;;;;;3.71;75.58;99328.88;345407;28;1305;-73
2021/12/02 00:49:28;;;;;;;342.95;99.40;;;;;;;3.73;75.36;99316.75;344210;28;987;-73
2021/12/02 00:49:39;;;;;;;343.13;98.93;;;;;;;3.73;75.13;99321.94;345527;28;963;-73
2021/12/02 00:49:50;;;;;;;336.63;98.22;;;;;;;3.70;75.37;99322.00;346828;28;856;-74
2021/12/02 00:50:00;;;;;;;338.57;99.37;;;;;;;3.70;75.35;99319.41;346939;28;1202;-73
2021/12/02 00:50:10;;;;;;;335.42;98.45;;;;;;;3.70;75.14;99327.16;345485;28;841;-73
2021/12/02 00:50:21;;;;;;;340.83;100.57;;;;;;;3.67;74.68;99330.66;342765;28;1212;-73
2021/12/02 00:50:31;;;;;;;338.48;98.57;;;;;;;3.68;74.72;99322.00;345256;28;1422;-73
2021/12/02 00:50:45;;;;;;;339.10;99.17;;;;;;;3.65;74.77;99317.75;345357;28;936;-73
2021/12/02 00:50:55;;;;;;;335.30;97.07;;;;;;;3.65;74.80;99328.09;342768;28;898;-73
2021/12/02 00:51:05;;;;;;;336.37;96.80;;;;;;;3.67;75.36;99325.47;344021;28;1079;-74
2021/12/02 00:51:16;;;;;;;339.27;98.15;;;;;;;3.65;74.73;99322.91;344136;28;885;-73
2021/12/02 00:51:27;;;;;;;340.30;99.55;;;;;;;3.67;75.04;99325.47;344049;28;887;-73
2021/12/02 00:51:38;;;;;;;338.67;99.83;;;;;;;3.66;75.07;99324.63;344137;28;890;-74
2021/12/02 00:51:56;;;;;;;337.58;99.75;;;;;;;3.66;75.10;99321.19;344117;28;923;-73
2021/12/02 00:52:06;;;;;;;343.10;102.20;;;;;;;3.70;74.43;99327.16;345227;28;1425;-73
2021/12/02 00:52:17;;;;;;;343.67;100.57;;;;;;;3.71;74.80;99324.56;345534;28;912;-73
2021/12/02 00:52:27;;;;;;;343.80;99.23;;;;;;;3.72;74.61;99320.22;342605;28;1593;-73
2021/12/02 00:52:38;;;;;;;342.77;98.75;;;;;;;3.71;74.70;99316.78;343846;28;1338;-73
2021/12/02 00:52:49;;;;;;;347.53;100.93;;;;;;;3.72;74.78;99326.25;343217;28;2001;-72
2021/12/02 00:53:00;;;;;;;352.15;103.45;;;;;;;3.72;75.00;99322.81;344075;28;888;-72
2021/12/02 00:53:10;;;;;;;352.63;104.75;;;;;;;3.71;75.05;99326.28;345410;28;1335;-72
2021/12/02 00:53:21;;;;;;;352.90;106.57;;;;;;;3.71;74.93;99321.09;346709;28;1379;-72
2021/12/02 00:53:32;;;;;;;349.80;106.35;;;;;;;3.70;75.43;99322.84;345442;28;852;-72
2021/12/02 00:53:46;;;;;;;351.77;106.07;;;;;;;3.70;75.48;99319.41;344116;28;1107;-72
2021/12/02 00:54:00;;;;;;;351.92;102.88;;;;;;;3.71;75.22;99321.97;346383;28;1362;-72
2021/12/02 00:54:11;;;;;;;349.48;101.80;;;;;;;3.70;75.17;99325.44;345363;28;1717;-72
2021/12/02 00:54:22;;;;;;;349.80;102.82;;;;;;;3.68;75.27;99322.88;342791;28;988;-72
2021/12/02 00:54:32;;;;;;;347.80;102.90;;;;;;;3.71;75.89;99316.78;345280;28;1373;-72
2021/12/02 00:54:43;;;;;;;347.92;103.82;;;;;;;3.71;75.26;99323.69;345435;28;1302;-72
2021/12/02 00:54:53;;;;;;;348.47;104.23;;;;;;;3.72;75.29;99317.63;345375;28;1966;-72
2021/12/02 00:55:04;;;;;;;351.55;104.28;;;;;;;3.72;75.79;99317.63;344058;28;1328;-72
2021/12/02 00:55:15;;;;;;;352.48;103.65;;;;;;;3.73;75.48;99319.34;345387;28;902;-72
2021/12/02 00:55:26;;;;;;;349.75;103.03;;;;;;;3.73;75.36;99316.75;345336;28;1234;-72
2021/12/02 00:55:38;;;;;;;347.85;103.35;;;;;;;3.72;75.64;99313.31;342707;28;1291;-72
2021/12/02 00:55:48;;;;;;;350.42;103.18;;;;;;;3.74;75.86;99321.06;346554;28;1116;-72
2021/12/02 00:56:03;;;;;;;348.10;101.47;;;;;;;3.74;75.63;99310.72;345432;28;1180;-72
2021/12/02 00:56:16;;;;;;;350.15;102.40;;;;;;;3.75;75.38;99313.25;342733;28;880;-72
2021/12/02 00:56:26;;;;;;;350.88;104.30;;;;;;;3.75;75.29;99317.59;341444;29;813;-72
2021/12/02 00:56:36;;;;;;;352.50;105.10;;;;;;;3.75;75.68;99312.41;342693;28;849;-72
2021/12/02 00:56:47;;;;;;;355.65;106.35;;;;;;;3.75;75.51;99307.22;344045;28;1239;-72
2021/12/02 00:56:57;;;;;;;353.90;105.50;;;;;;;3.75;75.69;99315.00;344018;28;881;-72
2021/12/02 00:57:09;;;;;;;354.05;106.13;;;;;;;3.76;75.48;99314.13;344863;28;1702;-72
2021/12/02 00:57:20;;;;;;;355.67;106.07;;;;;;;3.77;75.61;99311.50;344134;28;1047;-72
2021/12/02 00:57:30;;;;;;;350.97;104.37;;;;;;;3.76;75.10;99306.34;344056;28;1219;-73
2021/12/02 00:57:40;;;;;;;348.58;102.88;;;;;;;3.76;74.97;99308.94;345424;28;1314;-73
2021/12/02 00:57:51;;;;;;;344.63;100.77;;;;;;;3.75;75.29;99304.66;345680;28;1850;-73
2021/12/02 00:58:01;;;;;;;344.75;99.88;;;;;;;3.74;75.67;99308.13;345316;28;1229;-73
2021/12/02 00:58:15;;;;;;;345.17;99.63;;;;;;;3.73;75.47;99309.00;345425;28;805;-73
2021/12/02 00:58:26;;;;;;;349.88;102.20;;;;;;;3.71;75.51;99303.84;344124;28;935;-73
2021/12/02 00:58:36;;;;;;;352.30;103.43;;;;;;;3.73;75.19;99312.44;345402;28;821;-72
2021/12/02 00:58:47;;;;;;;350.60;102.43;;;;;;;3.74;75.32;99300.34;342635;28;1290;-72
2021/12/02 00:58:58;;;;;;;350.65;101.63;;;;;;;3.74;75.53;99306.38;345373;28;2085;-72
2021/12/02 00:59:08;;;;;;;349.02;101.97;;;;;;;3.73;75.71;99306.41;346808;28;856;-73